Time;durP1;ratioP1;P1;durP2;ratioP2;P2;SDS_P1;SDS_P2;PMS_P1;PMS_P2;Temp;Humidity;BMP_temperature;BMP_pressure;BME280_temperature;BME280_humidity;BME280_pressure;Samples;Min_cycle;Max_cycle;Signal;HPM_P1;HPM_P2
2022/05/10 00:00:32;;;;;;;5.28;2.17;;;10.20;61.50;;;;;;5092939;28;20028;-91
2022/05/10 00:03:00;;;;;;;3.17;1.70;;;10.00;61.80;;;;;;5092817;28;20389;-91
2022/05/10 00:05:30;;;;;;;5.40;1.80;;;10.00;61.80;;;;;;5093165;28;20115;-91
2022/05/10 00:07:57;;;;;;;5.35;2.20;;;9.90;62.00;;;;;;5094159;28;20115;-91
2022/05/10 00:10:23;;;;;;;4.43;2.30;;;9.90;62.40;;;;;;5096798;28;20066;-92
2022/05/10 00:12:49;;;;;;;2.85;1.70;;;9.90;62.30;;;;;;5096880;28;20497;-91
2022/05/10 00:15:15;;;;;;;3.17;2.00;;;9.80;62.10;;;;;;5096904;28;20028;-91
2022/05/10 00:17:42;;;;;;;4.50;1.60;;;9.80;62.30;;;;;;5096754;28;20024;-91
2022/05/10 00:20:16;;;;;;;6.10;2.10;;;9.80;62.10;;;;;;5096637;28;20039;-91
2022/05/10 00:22:42;;;;;;;5.25;2.08;;;9.80;62.40;;;;;;5096511;28;20059;-90
2022/05/10 00:25:10;;;;;;;2.83;2.13;;;9.70;62.80;;;;;;5097922;28;20039;-90
2022/05/10 00:27:36;;;;;;;3.22;2.38;;;9.70;62.70;;;;;;5096440;28;20051;-89
2022/05/10 00:30:04;;;;;;;3.42;2.30;;;9.60;63.60;;;;;;5096533;28;20085;-90
2022/05/10 00:32:34;;;;;;;7.05;2.30;;;9.60;63.80;;;;;;5096373;28;20090;-90
2022/05/10 00:34:59;;;;;;;4.50;2.35;;;9.60;64.00;;;;;;5096425;28;20117;-90
2022/05/10 00:37:25;;;;;;;4.25;2.58;;;9.60;64.00;;;;;;5096333;28;20028;-90
2022/05/10 00:39:51;;;;;;;3.20;2.83;;;9.50;64.20;;;;;;5096384;28;20520;-90
2022/05/10 00:42:38;;;;;;;4.15;2.67;;;9.50;64.10;;;;;;5095960;28;20028;-89
2022/05/10 00:45:09;;;;;;;3.55;2.50;;;9.50;63.80;;;;;;5096296;28;20024;-89
2022/05/10 00:47:41;;;;;;;3.88;2.60;;;9.50;63.60;;;;;;5096150;28;20031;-91
2022/05/10 00:50:32;;;;;;;5.30;2.63;;;9.50;63.40;;;;;;5097288;28;20024;-89
2022/05/10 00:53:13;;;;;;;3.90;2.78;;;9.40;63.20;;;;;;5095893;28;20016;-89
2022/05/10 00:56:07;;;;;;;4.30;3.10;;;9.40;63.10;;;;;;5097054;28;20117;-90
2022/05/10 00:58:43;;;;;;;4.82;3.10;;;9.40;63.00;;;;;;5095785;28;20036;-91
2022/05/10 01:01:14;;;;;;;4.05;2.90;;;9.40;63.20;;;;;;5095746;28;20470;-90
2022/05/10 01:03:59;;;;;;;5.60;2.90;;;9.30;63.30;;;;;;5095823;28;20067;-91
2022/05/10 01:06:43;;;;;;;7.75;2.70;;;9.30;63.50;;;;;;5112363;28;20093;-90
2022/05/10 01:09:15;;;;;;;6.13;2.92;;;9.30;63.40;;;;;;5095770;28;20588;-90
2022/05/10 01:11:58;;;;;;;4.82;2.78;;;9.20;63.40;;;;;;5095488;28;20031;-89
2022/05/10 01:14:35;;;;;;;5.72;2.90;;;9.20;63.50;;;;;;5095682;28;20477;-88
2022/05/10 01:17:01;;;;;;;4.20;2.90;;;9.10;63.50;;;;;;5096513;28;20032;-89
2022/05/10 01:19:26;;;;;;;5.88;3.05;;;9.10;63.50;;;;;;5095392;28;20032;-88
2022/05/10 01:22:30;;;;;;;6.68;3.30;;;9.10;63.60;;;;;;5095249;28;20428;-88
2022/05/10 01:25:50;;;;;;;4.63;3.20;;;9.10;63.50;;;;;;5067907;28;20035;-89
2022/05/10 01:28:45;;;;;;;4.45;2.83;;;9.00;63.30;;;;;;5034211;28;20026;-88
2022/05/10 01:31:19;;;;;;;7.82;3.10;;;9.00;63.40;;;;;;5095230;28;20077;-88
2022/05/10 01:33:52;;;;;;;5.25;2.72;;;9.00;63.50;;;;;;5095330;28;20020;-89
2022/05/10 01:36:53;;;;;;;4.43;2.90;;;9.00;63.70;;;;;;5096055;28;20032;-89
2022/05/10 01:39:48;;;;;;;10.93;2.70;;;8.90;64.00;;;;;;5095287;28;20128;-89
2022/05/10 01:42:25;;;;;;;3.90;2.85;;;8.90;64.40;;;;;;5095095;28;20056;-88
2022/05/10 01:45:15;;;;;;;5.38;3.25;;;8.90;64.40;;;;;;5094759;28;20026;-89
2022/05/10 01:47:47;;;;;;;4.32;2.88;;;8.90;64.70;;;;;;5090298;28;20031;-88
2022/05/10 01:50:37;;;;;;;6.85;3.55;;;8.80;64.60;;;;;;5096108;28;20028;-89
2022/05/10 01:53:11;;;;;;;12.48;3.42;;;8.80;64.50;;;;;;5095030;28;20034;-89
2022/05/10 01:55:41;;;;;;;5.60;3.40;;;8.80;64.80;;;;;;5094866;28;20389;-89
2022/05/10 01:58:13;;;;;;;5.13;3.50;;;8.80;65.30;;;;;;5094626;28;20102;-88
2022/05/10 02:00:40;;;;;;;8.00;3.58;;;8.70;65.50;;;;;;5095717;28;20039;-89
2022/05/10 02:03:30;;;;;;;6.20;3.50;;;8.70;65.60;;;;;;5094309;28;20054;-88
2022/05/10 02:05:58;;;;;;;7.23;4.07;;;8.70;65.50;;;;;;5094579;28;20114;-91
2022/05/10 02:08:51;;;;;;;7.53;3.67;;;8.70;65.90;;;;;;5094570;28;20016;-91
2022/05/10 02:11:17;;;;;;;7.72;4.00;;;8.70;65.80;;;;;;5095806;28;20343;-90
2022/05/10 02:13:53;;;;;;;5.75;3.55;;;8.70;65.60;;;;;;5094651;28;20031;-90
2022/05/10 02:16:52;;;;;;;10.32;4.18;;;8.70;65.80;;;;;;5095599;28;20102;-90
2022/05/10 02:19:26;;;;;;;7.70;4.40;;;8.70;66.30;;;;;;5077076;28;20181;-90
2022/05/10 02:21:56;;;;;;;7.55;3.95;;;8.70;66.50;;;;;;5094215;28;20059;-89
2022/05/10 02:24:43;;;;;;;8.45;4.57;;;8.60;66.50;;;;;;5094576;28;20111;-90
2022/05/10 02:27:43;;;;;;;4.88;3.97;;;8.60;66.60;;;;;;5094215;28;20061;-89
2022/05/10 02:30:15;;;;;;;4.93;3.50;;;8.60;66.70;;;;;;5093773;28;20158;-89
2022/05/10 02:33:08;;;;;;;8.65;4.22;;;8.60;66.70;;;;;;5094136;28;20031;-89
2022/05/10 02:35:44;;;;;;;6.40;3.92;;;8.50;66.60;;;;;;5093875;28;20390;-89
2022/05/10 02:38:15;;;;;;;6.18;4.40;;;8.40;66.70;;;;;;5093784;28;20081;-91
2022/05/10 02:40:43;;;;;;;6.45;4.20;;;8.40;66.70;;;;;;5093911;28;20036;-89
2022/05/10 02:43:15;;;;;;;8.85;4.88;;;8.30;66.90;;;;;;5093888;28;20020;-89
2022/05/10 02:45:42;;;;;;;9.00;4.85;;;8.20;67.00;;;;;;5093687;28;20049;-89
2022/05/10 02:48:20;;;;;;;12.13;5.45;;;8.10;67.00;;;;;;5093862;28;20024;-89
2022/05/10 02:50:46;;;;;;;5.97;4.43;;;8.10;67.10;;;;;;5093751;28;20054;-89
2022/05/10 02:53:11;;;;;;;11.13;4.63;;;8.10;67.10;;;;;;5094026;28;20027;-91
2022/05/10 02:56:05;;;;;;;7.63;4.55;;;8.00;67.10;;;;;;5093579;28;20016;-90
2022/05/10 02:58:55;;;;;;;8.77;4.80;;;8.00;67.20;;;;;;5090866;28;20466;-89
2022/05/10 03:01:52;;;;;;;7.93;4.85;;;7.90;67.20;;;;;;5094497;28;20481;-90
2022/05/10 03:04:18;;;;;;;7.18;4.35;;;8.00;67.40;;;;;;5094512;28;20461;-89
2022/05/10 03:06:46;;;;;;;6.03;4.45;;;8.00;67.30;;;;;;5093586;28;20024;-90
2022/05/10 03:09:12;;;;;;;8.30;4.93;;;8.00;67.20;;;;;;5093504;28;20024;-90
2022/05/10 03:11:39;;;;;;;9.95;4.78;;;8.00;67.50;;;;;;5094434;28;20157;-90
2022/05/10 03:14:06;;;;;;;7.07;4.28;;;8.00;67.80;;;;;;5093464;28;20024;-89
2022/05/10 03:16:32;;;;;;;7.03;4.40;;;8.10;67.60;;;;;;5093249;28;20024;-89
2022/05/10 03:18:59;;;;;;;8.15;4.70;;;8.10;67.70;;;;;;5093418;28;20028;-89
2022/05/10 03:21:24;;;;;;;6.90;4.47;;;8.20;67.70;;;;;;5093292;28;20111;-91
2022/05/10 03:23:51;;;;;;;8.55;4.85;;;8.20;67.50;;;;;;5094584;28;20096;-90
2022/05/10 03:26:27;;;;;;;5.93;4.07;;;8.20;67.60;;;;;;5093418;28;20020;-89
2022/05/10 03:28:53;;;;;;;7.72;4.40;;;8.30;67.50;;;;;;5093390;28;20020;-89
2022/05/10 03:31:23;;;;;;;6.40;4.55;;;8.30;67.70;;;;;;5093136;28;20115;-89
2022/05/10 03:34:53;;;;;;;6.25;4.05;;;8.30;67.60;;;;;;5093380;28;20039;-89
2022/05/10 03:36:34;;;;;;;7.32;4.40;;;8.40;67.70;;;;;;5094202;28;20528;-92
2022/05/10 03:39:00;;;;;;;6.57;4.20;;;8.40;67.60;;;;;;5094283;28;20032;-92
2022/05/10 03:41:26;;;;;;;8.35;4.10;;;8.50;67.30;;;;;;5093021;28;20032;-90
2022/05/10 03:43:54;;;;;;;7.10;4.00;;;8.60;67.30;;;;;;5095850;28;20024;-92
2022/05/10 03:46:19;;;;;;;8.35;4.20;;;8.70;66.80;;;;;;5097166;28;20515;-91
2022/05/10 03:48:48;;;;;;;5.85;3.83;;;8.70;66.80;;;;;;5097146;28;20115;-90
2022/05/10 03:51:14;;;;;;;8.48;3.85;;;8.80;66.50;;;;;;5097401;28;20032;-89
2022/05/10 03:53:39;;;;;;;9.18;3.78;;;8.80;66.20;;;;;;5098113;28;20375;-89
2022/05/10 03:56:05;;;;;;;4.78;3.72;;;8.90;66.40;;;;;;5096849;28;20386;-88
2022/05/10 03:58:30;;;;;;;7.97;4.07;;;9.00;66.20;;;;;;5096511;28;20464;-90
2022/05/10 04:00:57;;;;;;;5.78;3.90;;;9.00;66.30;;;;;;5096350;28;20024;-90
2022/05/10 04:03:23;;;;;;;6.07;3.30;;;9.10;66.60;;;;;;5096413;28;20481;-90
2022/05/10 04:05:49;;;;;;;4.88;3.30;;;9.20;66.30;;;;;;5097327;28;20020;-89
2022/05/10 04:08:14;;;;;;;8.65;3.92;;;9.20;66.00;;;;;;5095320;28;20074;-90
2022/05/10 04:10:40;;;;;;;5.30;3.60;;;9.30;65.90;;;;;;5096626;28;20069;-90
2022/05/10 04:13:07;;;;;;;5.38;3.67;;;9.30;65.30;;;;;;5096244;28;20024;-90
2022/05/10 04:15:32;;;;;;;6.07;3.78;;;9.40;64.80;;;;;;5095645;28;20070;-90
2022/05/10 04:17:58;;;;;;;5.40;3.70;;;9.50;65.00;;;;;;5095853;28;20020;-89
2022/05/10 04:20:27;;;;;;;5.28;3.55;;;9.60;64.40;;;;;;5096039;28;20070;-91
2022/05/10 04:22:52;;;;;;;6.32;3.30;;;9.70;64.50;;;;;;5097011;28;20042;-92
2022/05/10 04:25:21;;;;;;;6.07;3.47;;;9.70;63.70;;;;;;5096493;28;20032;-89
2022/05/10 04:27:47;;;;;;;4.10;3.05;;;9.80;63.00;;;;;;5097631;28;20044;-88
2022/05/10 04:30:13;;;;;;;8.68;3.10;;;9.90;63.50;;;;;;5097328;28;20055;-89
2022/05/10 04:32:39;;;;;;;6.05;3.20;;;10.00;63.40;;;;;;5096090;28;20028;-89
2022/05/10 04:35:05;;;;;;;4.15;3.22;;;10.00;62.40;;;;;;5095921;28;20055;-88
2022/05/10 04:37:31;;;;;;;5.47;3.10;;;10.10;62.80;;;;;;5095498;28;20028;-87
2022/05/10 04:42:44;;;;;;;7.07;3.50;;;10.40;62.50;;;;;;5096705;28;20111;-88
2022/05/10 04:45:10;;;;;;;4.95;3.15;;;10.40;62.40;;;;;;5094530;28;20054;-87
2022/05/10 04:47:37;;;;;;;4.90;2.83;;;10.50;62.00;;;;;;5093239;28;20545;-87
2022/05/10 04:50:03;;;;;;;5.05;3.25;;;10.50;62.50;;;;;;5093940;28;20107;-87
2022/05/10 04:52:28;;;;;;;4.60;3.10;;;10.60;62.70;;;;;;5095641;28;20107;-87
2022/05/10 04:54:54;;;;;;;5.28;3.17;;;10.70;62.60;;;;;;5094296;28;20031;-87
2022/05/10 04:57:21;;;;;;;4.15;3.10;;;10.90;61.60;;;;;;5095068;28;20389;-87
2022/05/10 04:59:47;;;;;;;5.68;3.30;;;11.00;61.00;;;;;;5096284;28;20024;-87
2022/05/10 05:02:13;;;;;;;4.72;3.35;;;11.00;61.20;;;;;;5095052;28;20024;-87
2022/05/10 05:04:39;;;;;;;5.70;3.35;;;11.00;61.10;;;;;;5095306;28;20028;-86
2022/05/10 05:07:05;;;;;;;4.30;2.70;;;11.00;61.00;;;;;;5096211;28;20020;-87
2022/05/10 05:09:31;;;;;;;7.70;2.85;;;11.20;60.90;;;;;;5095027;28;20115;-87
2022/05/10 05:11:57;;;;;;;5.50;3.17;;;11.30;61.00;;;;;;5096176;28;20038;-87
2022/05/10 05:14:23;;;;;;;6.10;2.83;;;11.40;59.60;;;;;;5095151;28;20099;-87
2022/05/10 05:16:49;;;;;;;4.50;2.78;;;11.50;59.30;;;;;;5096174;28;20059;-86
2022/05/10 05:19:15;;;;;;;4.55;2.78;;;11.60;59.70;;;;;;5094666;28;20024;-87
2022/05/10 05:21:40;;;;;;;3.33;2.70;;;11.70;59.00;;;;;;5095980;28;20045;-87
2022/05/10 05:24:06;;;;;;;3.88;2.78;;;11.90;59.00;;;;;;5094879;28;20020;-88
2022/05/10 05:26:32;;;;;;;4.57;2.88;;;11.90;57.50;;;;;;5095158;28;20032;-87
2022/05/10 05:28:59;;;;;;;4.90;2.75;;;11.90;56.50;;;;;;5095164;28;20031;-87
2022/05/10 05:31:25;;;;;;;9.27;2.88;;;11.80;57.50;;;;;;5095091;28;20028;-87
2022/05/10 05:33:51;;;;;;;4.40;2.90;;;11.90;57.40;;;;;;5094875;28;20020;-88
2022/05/10 05:36:16;;;;;;;5.63;3.00;;;11.90;57.40;;;;;;5094828;28;20035;-87
2022/05/10 05:38:42;;;;;;;4.95;2.88;;;11.80;57.90;;;;;;5094595;28;20378;-87
2022/05/10 05:41:08;;;;;;;5.28;2.90;;;12.00;57.30;;;;;;5094681;28;20466;-87
2022/05/10 05:43:34;;;;;;;5.13;3.20;;;12.10;57.40;;;;;;5095734;28;20490;-87
2022/05/10 05:46:01;;;;;;;4.30;2.58;;;12.20;57.30;;;;;;5094821;28;20386;-87
2022/05/10 05:48:28;;;;;;;5.20;2.92;;;12.30;57.30;;;;;;5095935;28;20022;-88
2022/05/10 05:50:54;;;;;;;4.72;2.90;;;12.40;56.20;;;;;;5095448;28;20028;-88
2022/05/10 05:53:20;;;;;;;4.07;2.67;;;12.40;56.00;;;;;;5094645;28;20027;-86
2022/05/10 05:55:48;;;;;;;4.35;2.83;;;12.40;55.80;;;;;;5094604;28;20024;-86
2022/05/10 05:58:14;;;;;;;3.58;2.78;;;12.30;56.60;;;;;;5077671;28;20035;-86
2022/05/10 06:00:41;;;;;;;4.97;2.75;;;12.40;57.00;;;;;;5094277;28;20406;-85
2022/05/10 06:03:08;;;;;;;4.38;3.10;;;12.60;57.00;;;;;;5095368;28;20024;-85
2022/05/10 06:05:35;;;;;;;6.07;2.95;;;12.70;56.40;;;;;;5093284;28;20020;-86
2022/05/10 06:08:03;;;;;;;4.45;2.70;;;12.80;55.10;;;;;;5094521;28;20027;-86
2022/05/10 06:10:30;;;;;;;5.13;2.80;;;12.90;55.50;;;;;;5094511;28;20058;-86
2022/05/10 06:13:01;;;;;;;5.53;3.10;;;12.90;55.50;;;;;;5093872;28;20085;-86
2022/05/10 06:15:27;;;;;;;6.22;3.08;;;13.00;55.60;;;;;;5095212;28;20035;-87
2022/05/10 06:17:53;;;;;;;2.63;2.42;;;13.10;55.50;;;;;;5093623;28;20024;-87
2022/05/10 06:20:21;;;;;;;5.15;3.05;;;13.20;55.40;;;;;;5093825;28;20080;-85
2022/05/10 06:22:48;;;;;;;3.85;2.75;;;13.20;53.80;;;;;;5093259;28;20059;-85
2022/05/10 06:25:17;;;;;;;4.30;2.80;;;13.20;53.50;;;;;;5094075;28;20020;-85
2022/05/10 06:27:44;;;;;;;3.70;2.60;;;13.30;52.90;;;;;;5094762;28;20099;-85
2022/05/10 06:30:12;;;;;;;4.65;2.38;;;13.30;52.70;;;;;;5093442;28;20024;-87
2022/05/10 06:32:37;;;;;;;6.18;2.67;;;13.40;53.40;;;;;;5094008;28;20111;-87
2022/05/10 06:35:04;;;;;;;5.47;3.05;;;13.50;52.60;;;;;;5093374;28;20140;-89
2022/05/10 06:40:16;;;;;;;3.60;2.83;;;13.50;50.20;;;;;;5095208;28;20386;-88
2022/05/10 06:42:43;;;;;;;3.33;2.42;;;13.50;51.20;;;;;;5093443;28;20020;-88
2022/05/10 06:45:11;;;;;;;3.50;2.33;;;13.60;51.10;;;;;;5093604;28;20441;-87
2022/05/10 06:47:39;;;;;;;4.22;2.55;;;13.60;50.00;;;;;;5093634;28;20020;-86
2022/05/10 06:50:07;;;;;;;7.03;2.55;;;13.70;51.10;;;;;;5093794;28;20055;-87
2022/05/10 06:52:33;;;;;;;3.97;2.55;;;13.70;51.50;;;;;;5094461;28;20133;-89
2022/05/10 06:54:58;;;;;;;4.45;2.25;;;13.80;50.30;;;;;;5094821;28;20028;-89
2022/05/10 06:57:24;;;;;;;3.00;2.33;;;13.80;50.20;;;;;;5093357;28;20020;-89
2022/05/10 06:59:50;;;;;;;3.30;2.30;;;13.90;51.20;;;;;;5094437;28;20051;-84
2022/05/10 07:02:15;;;;;;;5.03;2.42;;;14.00;50.60;;;;;;5093726;28;20053;-87
2022/05/10 07:04:43;;;;;;;5.18;2.17;;;14.10;50.70;;;;;;5093433;28;20026;-85
2022/05/10 07:07:08;;;;;;;1.80;1.70;;;14.10;51.40;;;;;;5093273;28;20022;-88
2022/05/10 07:09:34;;;;;;;3.28;1.90;;;14.10;47.60;;;;;;5093126;28;20110;-89
2022/05/10 07:12:01;;;;;;;2.85;2.08;;;14.10;47.00;;;;;;5093233;28;20077;-89
2022/05/10 07:14:27;;;;;;;2.15;1.92;;;14.20;46.40;;;;;;5093211;28;20103;-87
2022/05/10 07:16:53;;;;;;;2.97;2.10;;;14.30;46.60;;;;;;5092591;28;20101;-88
2022/05/10 07:19:18;;;;;;;2.45;1.80;;;14.40;47.20;;;;;;5093041;28;20462;-89
2022/05/10 07:21:45;;;;;;;4.72;1.80;;;14.40;47.10;;;;;;5092608;28;20118;-88
2022/05/10 07:24:11;;;;;;;2.55;1.65;;;14.60;46.70;;;;;;5093323;28;20034;-88
2022/05/10 07:26:43;;;;;;;5.35;1.75;;;14.50;46.30;;;;;;5092799;28;20115;-86
2022/05/10 07:29:10;;;;;;;1.88;1.60;;;14.50;45.70;;;;;;5093222;28;20428;-88
2022/05/10 07:31:36;;;;;;;2.40;2.00;;;14.50;46.20;;;;;;5093206;28;20032;-87
2022/05/10 07:34:02;;;;;;;1.77;1.60;;;14.60;46.60;;;;;;5094113;28;20081;-89
2022/05/10 07:36:33;;;;;;;2.80;1.85;;;14.80;46.50;;;;;;5094089;28;20513;-88
2022/05/10 07:39:00;;;;;;;1.60;1.50;;;14.80;46.00;;;;;;5093069;28;20032;-88
2022/05/10 07:41:27;;;;;;;2.97;1.90;;;14.90;46.00;;;;;;5076306;28;20094;-89
2022/05/10 07:43:53;;;;;;;4.90;1.88;;;14.90;45.70;;;;;;5092794;28;20028;-87
2022/05/10 07:46:19;;;;;;;5.97;1.63;;;14.80;46.00;;;;;;5076344;28;20025;-88
2022/05/10 07:48:45;;;;;;;3.03;1.90;;;14.90;46.10;;;;;;5094072;28;20378;-89
2022/05/10 07:51:11;;;;;;;4.68;1.80;;;15.00;45.40;;;;;;5092943;28;20048;-89
2022/05/10 07:53:36;;;;;;;3.65;1.70;;;15.00;45.40;;;;;;5092833;28;20093;-89
2022/05/10 07:56:03;;;;;;;1.77;1.50;;;15.00;45.60;;;;;;5092532;28;20061;-86
2022/05/10 07:58:30;;;;;;;3.30;1.52;;;15.10;45.30;;;;;;5093848;28;20031;-85
2022/05/10 08:00:56;;;;;;;2.75;1.65;;;15.10;44.90;;;;;;5093421;28;20031;-86
2022/05/10 08:03:24;;;;;;;7.30;1.88;;;15.20;45.60;;;;;;5092958;28;20467;-89
2022/05/10 08:05:52;;;;;;;3.67;1.73;;;15.20;45.50;;;;;;5093952;28;20023;-88
2022/05/10 08:08:18;;;;;;;4.10;1.67;;;15.20;44.50;;;;;;5092743;28;20020;-88
2022/05/10 08:10:45;;;;;;;3.25;1.70;;;15.20;44.80;;;;;;5092832;28;20024;-87
2022/05/10 08:13:13;;;;;;;1.80;1.70;;;15.10;45.50;;;;;;5094007;28;20055;-87
2022/05/10 08:15:39;;;;;;;4.97;1.95;;;15.10;45.10;;;;;;5092498;28;20523;-88
2022/05/10 08:18:07;;;;;;;2.08;1.60;;;15.10;44.80;;;;;;5093832;28;20028;-88
2022/05/10 08:20:33;;;;;;;5.85;1.75;;;15.20;44.30;;;;;;5092640;28;20076;-86
2022/05/10 08:22:58;;;;;;;4.97;1.70;;;15.30;44.20;;;;;;5092513;28;20031;-89
2022/05/10 08:25:24;;;;;;;2.85;1.73;;;15.20;44.60;;;;;;5059019;28;20024;-86
2022/05/10 08:27:50;;;;;;;5.13;2.25;;;15.20;45.50;;;;;;5093594;28;20489;-88
2022/05/10 08:30:16;;;;;;;2.65;2.13;;;15.30;45.20;;;;;;5095683;28;20066;-87
2022/05/10 08:32:43;;;;;;;2.20;1.70;;;15.30;44.10;;;;;;5097566;28;20027;-88
2022/05/10 08:35:10;;;;;;;1.92;1.60;;;15.30;44.60;;;;;;5096396;28;20024;-89
2022/05/10 08:37:37;;;;;;;1.70;1.60;;;15.30;45.50;;;;;;5097469;28;20036;-90
2022/05/10 08:40:10;;;;;;;2.42;1.65;;;15.40;44.50;;;;;;5096004;28;20030;-88
2022/05/10 08:42:47;;;;;;;3.13;1.92;;;15.50;45.00;;;;;;5096821;28;20032;-87
2022/05/10 08:45:13;;;;;;;3.08;1.50;;;15.50;44.60;;;;;;5097044;28;20016;-90
2022/05/10 08:47:41;;;;;;;3.33;1.50;;;15.40;44.70;;;;;;5096955;28;20046;-87
2022/05/10 08:50:10;;;;;;;2.05;1.70;;;15.50;45.80;;;;;;5095869;28;20028;-87
2022/05/10 08:52:40;;;;;;;5.07;1.90;;;15.50;45.30;;;;;;5063009;28;20028;-86
2022/05/10 08:55:09;;;;;;;3.95;1.80;;;15.50;45.80;;;;;;5097061;28;20496;-88
2022/05/10 08:57:59;;;;;;;3.95;1.95;;;15.40;45.70;;;;;;5096987;28;20024;-89
2022/05/10 09:00:55;;;;;;;3.38;1.90;;;15.40;44.70;;;;;;5096876;28;20035;-88
2022/05/10 09:03:31;;;;;;;3.33;1.80;;;15.40;44.40;;;;;;5096870;28;20024;-87
2022/05/10 09:06:05;;;;;;;3.30;1.88;;;15.50;45.30;;;;;;5097117;28;20078;-86
2022/05/10 09:08:37;;;;;;;2.75;1.60;;;15.50;44.80;;;;;;5096691;28;20016;-87
2022/05/10 09:11:12;;;;;;;2.95;1.65;;;15.50;43.80;;;;;;5095416;28;20063;-86
2022/05/10 09:13:38;;;;;;;2.30;1.70;;;15.50;44.40;;;;;;5095543;28;20028;-87
2022/05/10 09:16:10;;;;;;;6.15;1.90;;;15.50;44.40;;;;;;5096276;28;20051;-88
2022/05/10 09:18:57;;;;;;;3.85;1.83;;;15.60;44.30;;;;;;5096221;28;20054;-89
2022/05/10 09:21:26;;;;;;;3.22;1.58;;;15.70;43.90;;;;;;5094775;28;20055;-88
2022/05/10 09:24:05;;;;;;;;;;;15.70;44.50;;;;;;5096936;28;20039;-89
2022/05/10 09:26:42;;;;;;;2.58;1.55;;;15.80;44.30;;;;;;5096450;28;19904;-89
2022/05/10 09:29:32;;;;;;;3.78;2.25;;;15.90;44.40;;;;;;5096424;28;20054;-86
2022/05/10 09:35:00;;;;;;;2.25;1.95;;;16.00;44.00;;;;;;5096242;28;20310;-86
2022/05/10 09:37:54;;;;;;;3.92;2.10;;;15.90;43.80;;;;;;5095228;28;20501;-88
2022/05/10 09:40:42;;;;;;;2.03;1.83;;;16.00;43.80;;;;;;5091321;28;20040;-88
2022/05/10 09:43:17;;;;;;;4.13;1.70;;;15.90;43.50;;;;;;5094916;28;20503;-88
2022/05/10 09:45:45;;;;;;;5.78;1.95;;;15.80;43.60;;;;;;5096069;28;20051;-88
2022/05/10 09:48:18;;;;;;;3.50;1.95;;;15.80;43.90;;;;;;5095883;28;20016;-88
2022/05/10 09:50:52;;;;;;;3.40;1.70;;;15.80;45.20;;;;;;5095777;28;20024;-89
2022/05/10 09:53:33;;;;;;;3.55;2.00;;;15.90;45.20;;;;;;5095951;28;20024;-87
2022/05/10 09:56:03;;;;;;;1.95;1.73;;;16.00;44.90;;;;;;5094627;28;20032;-86
2022/05/10 09:58:38;;;;;;;3.63;2.33;;;16.00;43.60;;;;;;5095668;28;20052;-86
2022/05/10 10:01:11;;;;;;;3.30;1.70;;;16.00;43.40;;;;;;5095105;28;20265;-87
2022/05/10 10:03:39;;;;;;;2.42;1.63;;;16.00;43.50;;;;;;5094608;28;20153;-88
2022/05/10 10:06:20;;;;;;;4.32;2.08;;;15.90;43.40;;;;;;5094354;28;20374;-88
2022/05/10 10:08:50;;;;;;;2.75;1.73;;;15.90;44.10;;;;;;5090815;28;20043;-86
2022/05/10 10:11:32;;;;;;;2.38;1.65;;;15.90;43.80;;;;;;5094901;28;20035;-85
2022/05/10 10:14:08;;;;;;;3.72;1.80;;;16.00;44.40;;;;;;5094206;28;20462;-87
2022/05/10 10:16:50;;;;;;;1.90;1.70;;;16.10;43.90;;;;;;5095441;28;20028;-88
2022/05/10 10:19:25;;;;;;;2.45;1.50;;;16.10;42.80;;;;;;5093806;28;20050;-85
2022/05/10 10:21:56;;;;;;;4.03;1.63;;;15.90;43.10;;;;;;5094712;28;20075;-87
2022/05/10 10:24:49;;;;;;;3.38;1.70;;;15.80;43.50;;;;;;5093758;28;20031;-87
2022/05/10 10:27:28;;;;;;;1.95;1.70;;;15.80;44.00;;;;;;5086190;28;20078;-87
2022/05/10 10:30:27;;;;;;;3.05;1.70;;;15.80;44.10;;;;;;5093733;28;20027;-86
2022/05/10 10:33:14;;;;;;;2.28;1.67;;;16.00;43.50;;;;;;5087537;28;20394;-87
2022/05/10 10:36:09;;;;;;;4.80;2.08;;;15.90;44.00;;;;;;5093782;28;20400;-87
2022/05/10 10:38:45;;;;;;;1.80;1.50;;;15.90;44.10;;;;;;5095100;28;20024;-89
2022/05/10 10:41:18;;;;;;;4.07;1.65;;;16.10;44.70;;;;;;5093680;28;20031;-87
2022/05/10 10:44:06;;;;;;;3.65;1.80;;;16.20;44.30;;;;;;5094727;28;20051;-86
2022/05/10 10:46:47;;;;;;;2.13;1.30;;;16.30;43.10;;;;;;5093476;28;20036;-86
2022/05/10 10:49:13;;;;;;;;;;;16.20;43.10;;;;;;5093868;28;20016;-87
2022/05/10 10:51:40;;;;;;;2.92;2.22;;;16.20;43.40;;;;;;5092994;28;19908;-86
2022/05/10 10:54:15;;;;;;;2.30;1.45;;;16.20;43.70;;;;;;5094242;28;20458;-85
2022/05/10 10:57:09;;;;;;;3.03;1.70;;;16.40;44.00;;;;;;5094643;28;20103;-87
2022/05/10 10:59:41;;;;;;;3.17;1.90;;;16.40;43.50;;;;;;5094478;28;20028;-88
2022/05/10 11:02:57;;;;;;;4.15;1.85;;;16.50;43.10;;;;;;5094307;28;20028;-86
2022/05/10 11:05:51;;;;;;;2.60;1.67;;;16.40;43.70;;;;;;5093325;28;20043;-88
2022/05/10 11:08:45;;;;;;;5.55;1.70;;;16.30;43.40;;;;;;5094430;28;20024;-87
2022/05/10 11:11:41;;;;;;;4.57;1.60;;;16.30;43.90;;;;;;5094642;28;20035;-88
2022/05/10 11:14:13;;;;;;;2.05;1.80;;;16.30;43.70;;;;;;5094444;28;20024;-88
2022/05/10 11:17:04;;;;;;;2.28;1.80;;;16.30;44.20;;;;;;5094548;28;20028;-87
2022/05/10 11:19:35;;;;;;;;;;;16.40;44.00;;;;;;5093516;28;20028;-86
2022/05/10 11:22:22;;;;;;;2.30;1.40;;;16.40;43.70;;;;;;5093782;28;19926;-86
2022/05/10 11:25:16;;;;;;;3.22;1.92;;;16.40;43.00;;;;;;5093024;28;20103;-87
2022/05/10 11:28:11;;;;;;;3.30;1.90;;;16.50;43.30;;;;;;5094087;28;20020;-86
2022/05/10 11:31:01;;;;;;;5.07;1.92;;;16.70;42.60;;;;;;5091748;28;20470;-86
2022/05/10 11:34:01;;;;;;;4.00;1.90;;;16.70;43.20;;;;;;5094083;28;20024;-86
2022/05/10 11:36:42;;;;;;;1.60;1.50;;;16.70;43.00;;;;;;5093056;28;20060;-87
2022/05/10 11:39:29;;;;;;;2.58;1.80;;;16.80;43.40;;;;;;5094077;28;20020;-87
2022/05/10 11:42:24;;;;;;;5.28;1.70;;;16.80;42.80;;;;;;5094001;28;20084;-86
2022/05/10 11:45:12;;;;;;;1.83;1.60;;;16.90;42.70;;;;;;5092941;28;20382;-87
2022/05/10 11:47:50;;;;;;;2.35;1.75;;;17.00;42.60;;;;;;5093792;28;20020;-86
2022/05/10 11:51:38;;;;;;;5.30;1.85;;;17.10;43.00;;;;;;5092683;28;20108;-87
2022/05/10 11:54:06;;;;;;;3.40;1.42;;;17.40;42.90;;;;;;5093772;28;20020;-86
2022/05/10 11:56:35;;;;;;;2.10;1.80;;;17.80;42.00;;;;;;5092790;28;20024;-86
2022/05/10 11:59:10;;;;;;;3.42;1.63;;;18.10;41.80;;;;;;5092594;28;20024;-88
2022/05/10 12:01:50;;;;;;;2.40;1.92;;;18.50;41.10;;;;;;5093659;28;20020;-88
2022/05/10 12:04:34;;;;;;;;;;;18.60;39.90;;;;;;5095984;28;20406;-87
2022/05/10 12:07:19;;;;;;;3.65;1.63;;;18.70;40.30;;;;;;5097553;28;19904;-85
2022/05/10 12:10:14;;;;;;;2.83;1.70;;;19.00;40.90;;;;;;5097531;28;20020;-87
2022/05/10 12:12:55;;;;;;;2.72;1.73;;;19.10;39.40;;;;;;5082544;28;20036;-88
2022/05/10 12:21:21;;;;;;;1.55;1.45;;;19.10;40.10;;;;;;5097772;28;20102;-85
2022/05/10 12:24:04;;;;;;;3.13;1.70;;;19.40;39.60;;;;;;5097214;28;20024;-87
2022/05/10 12:26:43;;;;;;;2.05;1.63;;;19.70;39.50;;;;;;5097028;28;20099;-85
2022/05/10 12:29:38;;;;;;;2.30;1.92;;;19.80;39.20;;;;;;5096972;28;20020;-85
2022/05/10 12:32:28;;;;;;;3.65;1.80;;;19.90;38.80;;;;;;5097238;28;20031;-88
2022/05/10 12:35:00;;;;;;;3.53;1.77;;;19.90;39.30;;;;;;5095801;28;20020;-85
2022/05/10 12:37:26;;;;;;;2.83;1.80;;;19.70;38.50;;;;;;5097230;28;20153;-88
2022/05/10 12:40:12;;;;;;;2.55;1.80;;;19.70;39.00;;;;;;5097068;28;20031;-86
2022/05/10 12:42:47;;;;;;;3.97;2.20;;;19.70;38.80;;;;;;5055832;28;20137;-86
2022/05/10 12:45:40;;;;;;;2.40;1.63;;;19.60;39.20;;;;;;5096955;28;20031;-85
2022/05/10 12:48:22;;;;;;;2.58;1.70;;;19.60;38.70;;;;;;5096758;28;20027;-88
2022/05/10 12:51:03;;;;;;;3.95;1.75;;;19.60;38.70;;;;;;5096764;28;20099;-84
2022/05/10 12:53:46;;;;;;;2.97;2.00;;;19.60;39.00;;;;;;5096689;28;20028;-86
2022/05/10 12:56:20;;;;;;;5.60;1.70;;;19.70;39.00;;;;;;5095616;28;20031;-88
2022/05/10 12:58:54;;;;;;;2.00;1.80;;;19.80;38.80;;;;;;5095569;28;20028;-87
2022/05/10 13:01:24;;;;;;;2.75;1.42;;;19.90;39.10;;;;;;5096744;28;20059;-86
2022/05/10 13:03:56;;;;;;;3.40;1.80;;;20.00;38.70;;;;;;5095416;28;20073;-87
2022/05/10 13:06:38;;;;;;;1.65;1.55;;;19.90;38.40;;;;;;5096482;28;20048;-86
2022/05/10 13:09:25;;;;;;;5.72;2.20;;;19.70;38.70;;;;;;5096632;28;20069;-86
2022/05/10 13:11:57;;;;;;;2.67;2.15;;;19.50;38.90;;;;;;5096313;28;20028;-87
2022/05/10 13:14:24;;;;;;;2.92;1.92;;;19.40;39.40;;;;;;5095905;28;20052;-86
2022/05/10 13:16:52;;;;;;;4.53;2.20;;;19.50;39.70;;;;;;5096238;28;20040;-89
2022/05/10 13:19:21;;;;;;;4.18;1.70;;;19.50;39.50;;;;;;5096238;28;20078;-86
2022/05/10 13:21:48;;;;;;;3.17;1.88;;;19.40;39.80;;;;;;5095873;28;20506;-86
2022/05/10 13:24:20;;;;;;;2.10;1.45;;;19.40;40.10;;;;;;5095080;28;20020;-88
2022/05/10 13:26:57;;;;;;;2.35;1.90;;;19.30;39.70;;;;;;5094778;28;20027;-85
2022/05/10 13:29:42;;;;;;;4.50;1.95;;;19.30;40.20;;;;;;5095777;28;20024;-86
2022/05/10 13:32:26;;;;;;;2.97;1.60;;;19.30;40.30;;;;;;5094735;28;20032;-84
2022/05/10 13:34:53;;;;;;;4.90;2.00;;;19.20;40.20;;;;;;5096132;28;20045;-87
2022/05/10 13:37:27;;;;;;;3.47;2.10;;;18.90;40.40;;;;;;5094710;28;20481;-88